Portada
METAR-TAF:

METAR-TAF

Aeroports :

Bamako, Mali

latitud: 12-32N, longitud: 007-57W, altitud: 380 m

Observació

L'informe es va fer fa 32 minuts, a les 10:30 UTC
Vent 13 kt del Nord-Est
Temperatura 36°C
Humitat 12%
Pressió 1013 hPa
Visibilitat 10 km o més
sense núvols per sota de 1500 mi sense presència de cumulonimbus.

METAR: GABS 301030Z 04013KT CAVOK 36/02 Q1013 NOSIG

Hora: 11:02 (11:02 UTC)

Pronòstic

L'informe es va fer fa 5 hores i 32 minuts, a les 05:30 UTC
Pronòstic vàlid del 30 a les 06 UTC al 31 a les 12 UTC
Vent 10 kt del Nord/Nord-Est
Visibilitat: 8000 m

TAF: GABS 300530Z 3006/3112 02010KT 8000 NSC

Observacions i pronòstics meteorològics de més de 4000 aeroports (METAR i TAF).

Les estacions disponibles són els punts grocs i vermells al mapa.

Posi el ratolí al punt desitjat per veure el nom de l'estació.

Feu clic per veure les observacions i els pronòstics meteorològics.

Per canviar el mapa: feu clic els botons verds amb una creu de color negre per apropar; al botó verd amb un guió per allunyar la imatge; o en les fletxes verdes per a mapes adjacents.


METAR-TAF: